createdAt,value
2022-10-24T00:00:49.038Z,100.00
2022-10-24T00:05:52.854Z,100.00
2022-10-24T00:10:55.001Z,100.00
2022-10-24T00:15:56.646Z,100.00
2022-10-24T00:21:00.113Z,100.00
2022-10-24T00:26:02.229Z,100.00
2022-10-24T00:31:04.604Z,100.00
2022-10-24T00:36:12.755Z,100.00
2022-10-24T00:41:16.320Z,100.00
2022-10-24T00:46:20.094Z,100.00
2022-10-24T00:51:26.016Z,100.00
2022-10-24T00:56:31.258Z,100.00
2022-10-24T01:01:33.745Z,100.00
2022-10-24T01:06:46.828Z,100.00
2022-10-24T01:12:00.127Z,100.00
2022-10-24T01:17:11.450Z,100.00
2022-10-24T01:22:19.272Z,100.00
2022-10-24T01:27:37.871Z,100.00
2022-10-24T01:32:48.012Z,100.00
2022-10-24T01:37:58.579Z,100.00
2022-10-24T01:43:06.098Z,100.00
2022-10-24T01:48:13.805Z,100.00
2022-10-24T01:53:17.459Z,100.00
2022-10-24T01:58:21.137Z,100.00
2022-10-24T02:03:30.866Z,100.00
2022-10-24T02:08:37.749Z,100.00
2022-10-24T02:13:48.198Z,100.00
2022-10-24T02:18:54.932Z,100.00
2022-10-24T02:24:01.795Z,100.00
2022-10-24T02:29:09.232Z,100.00
2022-10-24T02:34:13.767Z,100.00
2022-10-24T02:39:17.802Z,100.00
2022-10-24T02:44:20.131Z,100.00
2022-10-24T02:49:23.132Z,100.00
2022-10-24T02:54:25.174Z,100.00
2022-10-24T02:59:27.195Z,100.00
2022-10-24T03:04:30.520Z,100.00
2022-10-24T03:09:32.558Z,100.00
2022-10-24T03:14:34.494Z,100.00
2022-10-24T03:19:38.138Z,100.00
2022-10-24T03:24:44.321Z,100.00
2022-10-24T03:29:46.354Z,100.00
2022-10-24T03:34:50.010Z,100.00
2022-10-24T03:39:51.959Z,100.00
2022-10-24T03:44:53.663Z,100.00
2022-10-24T03:49:56.818Z,100.00
2022-10-24T03:54:59.030Z,100.00
2022-10-24T04:00:00.743Z,100.00
2022-10-24T04:05:05.268Z,100.00
2022-10-24T04:10:08.099Z,100.00
2022-10-24T04:15:10.821Z,100.00
2022-10-24T04:20:13.981Z,100.00
2022-10-24T04:25:16.995Z,100.00
2022-10-24T04:30:18.728Z,100.00
2022-10-24T04:35:22.073Z,100.00
2022-10-24T04:40:24.151Z,100.00
2022-10-24T04:45:26.291Z,100.00
2022-10-24T04:50:29.618Z,100.00
2022-10-24T04:55:31.995Z,100.00
2022-10-24T05:00:37.172Z,100.00
2022-10-24T05:05:40.374Z,100.00
2022-10-24T05:10:42.842Z,100.00
2022-10-24T05:15:44.906Z,100.00
2022-10-24T05:20:48.255Z,100.00
2022-10-24T05:25:50.336Z,100.00
2022-10-24T05:30:52.011Z,100.00
2022-10-24T05:35:55.734Z,100.00
2022-10-24T05:40:57.784Z,100.00
2022-10-24T05:45:59.892Z,100.00
2022-10-24T05:51:03.080Z,100.00
2022-10-24T05:56:05.661Z,100.00
2022-10-24T06:01:07.717Z,100.00
2022-10-24T06:06:11.175Z,100.00
2022-10-24T06:11:14.166Z,100.00
2022-10-24T06:16:16.279Z,100.00
2022-10-24T06:21:19.868Z,100.00
2022-10-24T06:26:24.013Z,100.00
2022-10-24T06:31:26.609Z,100.00
2022-10-24T06:36:31.582Z,100.00
2022-10-24T06:41:33.832Z,100.00
2022-10-24T06:46:35.719Z,100.00
2022-10-24T06:51:39.146Z,100.00
2022-10-24T06:56:40.867Z,100.00
2022-10-24T07:01:43.183Z,100.00
2022-10-24T07:06:46.448Z,100.00
2022-10-24T07:11:48.112Z,100.00
2022-10-24T07:16:50.073Z,100.00
2022-10-24T07:21:53.644Z,100.00
2022-10-24T07:26:55.585Z,100.00
2022-10-24T07:31:57.717Z,100.00
2022-10-24T07:37:01.137Z,100.00
2022-10-24T07:42:03.230Z,100.00
2022-10-24T07:47:05.348Z,100.00
2022-10-24T07:52:08.354Z,100.00
2022-10-24T07:57:10.043Z,100.00
2022-10-24T08:02:12.452Z,99.58
2022-10-24T08:07:15.575Z,98.44
2022-10-24T08:12:18.385Z,97.11
2022-10-24T08:17:20.224Z,96.25
2022-10-24T08:22:23.756Z,94.41
2022-10-24T08:27:25.460Z,93.29
2022-10-24T08:32:27.516Z,92.53
2022-10-24T08:37:30.695Z,91.58
2022-10-24T08:42:34.097Z,90.14
2022-10-24T08:52:48.637Z,86.83
2022-10-24T08:57:53.669Z,86.34
2022-10-24T09:03:01.774Z,85.79
2022-10-24T09:08:20.296Z,84.88
2022-10-24T09:13:27.565Z,84.35
2022-10-24T09:18:34.321Z,84.05
2022-10-24T09:23:38.308Z,83.79
2022-10-24T09:28:40.510Z,82.60
2022-10-24T09:33:44.149Z,81.37
2022-10-24T09:38:48.639Z,80.81
2022-10-24T09:43:53.463Z,81.31
2022-10-24T09:48:58.589Z,81.11
2022-10-24T09:54:06.530Z,81.00
2022-10-24T09:59:26.862Z,80.30
2022-10-24T10:04:28.804Z,79.44
2022-10-24T10:09:32.015Z,79.35
2022-10-24T10:14:41.462Z,79.16
2022-10-24T10:19:47.495Z,79.52
2022-10-24T10:24:50.898Z,80.45
2022-10-24T10:30:08.796Z,80.44
2022-10-24T10:35:19.669Z,80.37
2022-10-24T10:40:32.414Z,80.01
2022-10-24T10:45:41.567Z,79.11
2022-10-24T10:50:49.817Z,79.47
2022-10-24T10:56:00.647Z,79.93
2022-10-24T11:01:11.504Z,78.42
2022-10-24T11:06:31.436Z,78.94
2022-10-24T11:11:38.817Z,78.03
2022-10-24T11:16:41.817Z,78.31
2022-10-24T11:21:44.773Z,78.74
2022-10-24T11:26:55.097Z,78.59
2022-10-24T11:32:15.857Z,77.77
2022-10-24T11:37:26.246Z,78.62
2022-10-24T11:42:41.391Z,78.66
2022-10-24T11:47:52.214Z,78.14
2022-10-24T11:52:58.981Z,77.88
2022-10-24T11:58:03.459Z,78.13
2022-10-24T12:03:37.778Z,77.66
2022-10-24T12:09:05.339Z,76.46
2022-10-24T12:14:35.940Z,76.85
2022-10-24T12:19:41.092Z,76.69
2022-10-24T12:24:44.265Z,76.47
2022-10-24T12:30:02.091Z,75.77
2022-10-24T12:35:30.473Z,75.47
2022-10-24T12:40:54.075Z,74.32
2022-10-24T12:45:58.561Z,74.83
2022-10-24T12:51:04.612Z,74.37
2022-10-24T13:01:31.236Z,73.48
2022-10-24T13:06:46.859Z,73.06
2022-10-24T13:12:06.379Z,71.50
2022-10-24T13:17:18.713Z,70.22
2022-10-24T13:22:29.532Z,68.82
2022-10-24T13:27:32.209Z,69.86
2022-10-24T13:32:35.587Z,68.94
2022-10-24T13:37:43.345Z,70.71
2022-10-24T13:42:52.261Z,70.91
2022-10-24T13:47:59.796Z,70.75
2022-10-24T13:53:12.464Z,70.97
2022-10-24T13:58:19.231Z,72.25
2022-10-24T14:03:25.447Z,71.80
2022-10-24T14:08:31.642Z,71.75
2022-10-24T14:13:38.320Z,72.21
2022-10-24T14:18:42.412Z,72.20
2022-10-24T14:23:54.843Z,71.90
2022-10-24T14:28:59.916Z,71.60
2022-10-24T14:34:06.297Z,72.08
2022-10-24T14:39:15.524Z,72.85
2022-10-24T14:44:19.820Z,73.78
2022-10-24T14:49:30.330Z,73.64
2022-10-24T14:54:33.787Z,73.94
2022-10-24T14:59:38.495Z,74.56
2022-10-24T15:04:44.344Z,75.81
2022-10-24T15:09:55.365Z,76.81
2022-10-24T15:15:00.721Z,76.80
2022-10-24T15:20:06.059Z,76.57
2022-10-24T15:25:19.089Z,77.41
2022-10-24T15:30:22.666Z,77.32
2022-10-24T15:35:27.075Z,76.72
2022-10-24T15:40:33.390Z,77.62
2022-10-24T15:45:37.203Z,76.98
2022-10-24T15:50:44.254Z,77.42
2022-10-24T15:55:46.753Z,78.30
2022-10-24T16:00:49.172Z,78.13
2022-10-24T16:05:54.951Z,78.64
2022-10-24T16:10:57.329Z,78.82
2022-10-24T16:15:59.565Z,78.99
2022-10-24T16:21:04.351Z,78.80
2022-10-24T16:26:06.497Z,78.48
2022-10-24T16:31:09.355Z,79.01
2022-10-24T16:36:12.961Z,78.59
2022-10-24T16:41:15.951Z,78.31
2022-10-24T16:46:20.781Z,78.23
2022-10-24T16:51:26.998Z,78.20
2022-10-24T16:56:30.011Z,78.49
2022-10-24T17:01:32.529Z,78.96
2022-10-24T17:06:36.389Z,79.15
2022-10-24T17:11:46.501Z,79.54
2022-10-24T17:16:55.424Z,80.00
2022-10-24T17:22:23.254Z,80.18
2022-10-24T17:27:30.736Z,80.35
2022-10-24T17:32:37.023Z,80.10
2022-10-24T17:37:50.019Z,80.18
2022-10-24T17:42:52.715Z,79.90
2022-10-24T17:47:54.845Z,80.38
2022-10-24T17:52:58.355Z,80.18
2022-10-24T17:58:00.428Z,80.80
2022-10-24T18:03:02.510Z,80.83
2022-10-24T18:08:07.157Z,80.66
2022-10-24T18:13:09.665Z,79.54
2022-10-24T18:18:12.031Z,79.74
2022-10-24T18:23:15.475Z,80.51
2022-10-24T18:28:17.215Z,80.63
2022-10-24T18:33:19.109Z,79.27
2022-10-24T18:38:22.158Z,78.72
2022-10-24T18:43:24.084Z,79.28
2022-10-24T18:48:26.842Z,78.69
2022-10-24T18:53:41.593Z,79.39
2022-10-24T18:58:43.950Z,79.13
2022-10-24T19:03:46.757Z,79.59
2022-10-24T19:08:50.564Z,80.64
2022-10-24T19:13:52.690Z,80.82
2022-10-24T19:18:57.583Z,80.95
2022-10-24T19:24:01.306Z,81.07
2022-10-24T19:29:05.768Z,81.63
2022-10-24T19:34:09.334Z,82.57
2022-10-24T19:39:12.795Z,82.08
2022-10-24T19:44:15.640Z,82.87
2022-10-24T19:49:18.196Z,82.98
2022-10-24T19:54:21.335Z,82.71
2022-10-24T19:59:23.642Z,82.59
2022-10-24T20:04:25.975Z,83.55
2022-10-24T20:09:29.308Z,83.78
2022-10-24T20:14:30.997Z,83.53
2022-10-24T20:19:32.709Z,83.95
2022-10-24T20:24:35.930Z,84.47
2022-10-24T20:29:37.630Z,84.08
2022-10-24T20:34:39.697Z,84.70
2022-10-24T20:39:42.724Z,84.50
2022-10-24T20:44:44.602Z,85.22
2022-10-24T20:49:46.302Z,85.11
2022-10-24T20:54:49.585Z,86.25
2022-10-24T20:59:51.299Z,86.41
2022-10-24T21:04:52.984Z,86.98
2022-10-24T21:09:56.080Z,87.12
2022-10-24T21:14:57.867Z,87.15
2022-10-24T21:19:59.568Z,88.34
2022-10-24T21:25:03.004Z,87.90
2022-10-24T21:30:07.977Z,88.28
2022-10-24T21:35:11.802Z,88.59
2022-10-24T21:40:14.908Z,89.35
2022-10-24T21:45:16.773Z,89.50
2022-10-24T21:50:18.683Z,89.93
2022-10-24T21:55:21.795Z,90.11
2022-10-24T22:00:23.570Z,90.00
2022-10-24T22:05:25.400Z,90.57
2022-10-24T22:10:28.397Z,90.53
2022-10-24T22:15:30.112Z,90.87
2022-10-24T22:20:32.228Z,91.18
2022-10-24T22:25:35.351Z,91.74
2022-10-24T22:30:37.817Z,91.93
2022-10-24T22:35:40.237Z,92.72
2022-10-24T22:40:43.930Z,92.75
2022-10-24T22:45:55.697Z,93.48
2022-10-24T22:50:57.673Z,94.55
2022-10-24T22:56:12.662Z,94.66
2022-10-24T23:01:28.835Z,94.92
2022-10-24T23:06:39.964Z,95.23
2022-10-24T23:11:43.724Z,95.76
2022-10-24T23:16:50.841Z,95.83
2022-10-24T23:21:56.236Z,96.37
2022-10-24T23:27:20.696Z,96.57
2022-10-24T23:32:24.581Z,97.13
2022-10-24T23:37:32.955Z,97.36
2022-10-24T23:42:36.744Z,97.33
2022-10-24T23:47:51.311Z,97.66
2022-10-24T23:53:14.076Z,98.16
2022-10-24T23:58:18.004Z,98.68
